Pleasant Ridge, Illinois
Current Conditions -  °F | °C
As of 9:15 AM on Wednesday 22 Oct 2014 (Local Time) from KPNT Reporting Station
Clear Clear  
Wind Chill: 41°   Ceiling: Unl
Heat Index: 44°   Visibility: 10mi
Dew Point: 39°   Wind: 7mph
Humidity: 81%   Direction: 110°ESE
Pressure: 30.37"   Gusts: NA
Location:  40.7521°N, 88.412°W
Report Text: KPNT 221415Z AUTO 11006KT 10SM CLR 07/04 A3037 RMK AO2 T00690038
Loading
Personal Weather Stations






























Interactive Weather Map
Tropical Storm Tracking
New forecast layout! Learn more

10-Day Weather Forecast

Advertisements
Track Severe Weather on mobile